createdAt,value
2023-01-08T00:00:40.856Z,8.50
2023-01-08T00:01:40.831Z,8.50
2023-01-08T00:02:40.856Z,8.80
2023-01-08T00:03:40.907Z,8.40
2023-01-08T00:04:40.845Z,8.60
2023-01-08T00:05:40.733Z,8.30
2023-01-08T00:06:40.683Z,8.60
2023-01-08T00:07:40.749Z,8.70
2023-01-08T00:08:40.689Z,8.70
2023-01-08T00:09:40.702Z,8.70
2023-01-08T00:10:40.694Z,8.60
2023-01-08T00:11:40.672Z,8.50
2023-01-08T00:12:40.641Z,8.40
2023-01-08T00:13:40.654Z,8.70
2023-01-08T00:14:40.587Z,8.30
2023-01-08T00:15:40.610Z,8.50
2023-01-08T00:16:40.667Z,8.50
2023-01-08T00:17:40.594Z,8.50
2023-01-08T00:18:40.551Z,8.10
2023-01-08T00:19:40.528Z,7.90
2023-01-08T00:20:40.533Z,8.50
2023-01-08T00:21:40.516Z,8.00
2023-01-08T00:22:40.520Z,8.30
2023-01-08T00:23:40.523Z,8.40
2023-01-08T00:24:40.464Z,8.00
2023-01-08T00:25:40.463Z,8.80
2023-01-08T00:26:40.409Z,7.60
2023-01-08T00:27:40.461Z,8.00
2023-01-08T00:28:40.451Z,8.60
2023-01-08T00:29:40.436Z,9.10
2023-01-08T00:30:40.429Z,8.10
2023-01-08T00:31:40.382Z,8.10
2023-01-08T00:32:40.356Z,8.20
2023-01-08T00:33:40.359Z,8.50
2023-01-08T00:34:40.420Z,8.30
2023-01-08T00:35:40.355Z,8.20
2023-01-08T00:36:40.285Z,8.80
2023-01-08T00:37:40.318Z,8.70
2023-01-08T00:38:40.273Z,8.90
2023-01-08T00:39:40.269Z,7.90
2023-01-08T00:40:40.397Z,8.30
2023-01-08T00:41:40.275Z,8.40
2023-01-08T00:42:40.230Z,7.90
2023-01-08T00:43:40.254Z,8.60
2023-01-08T00:44:40.211Z,7.60
2023-01-08T00:45:40.205Z,7.70
2023-01-08T00:46:40.255Z,8.40
2023-01-08T00:47:40.171Z,7.60
2023-01-08T00:48:40.125Z,8.60
2023-01-08T00:49:40.154Z,8.10
2023-01-08T00:50:40.112Z,8.00
2023-01-08T00:51:40.111Z,9.20
2023-01-08T00:52:40.124Z,8.30
2023-01-08T00:53:40.059Z,8.50
2023-01-08T00:54:40.058Z,8.30
2023-01-08T00:55:40.015Z,8.10
2023-01-08T00:56:40.020Z,8.10
2023-01-08T00:57:40.053Z,8.10
2023-01-08T00:58:40.090Z,8.10
2023-01-08T00:59:39.989Z,7.80
2023-01-08T01:00:40.005Z,7.70
2023-01-08T01:01:40.021Z,8.00
2023-01-08T01:02:40.012Z,8.00
2023-01-08T01:03:39.934Z,8.00
2023-01-08T01:04:39.945Z,8.20
2023-01-08T01:05:39.932Z,8.30
2023-01-08T01:06:39.919Z,7.90
2023-01-08T01:07:39.847Z,7.70
2023-01-08T01:08:39.896Z,8.10
2023-01-08T01:09:39.831Z,8.10
2023-01-08T01:10:39.870Z,7.70
2023-01-08T01:11:39.807Z,8.80
2023-01-08T01:12:39.824Z,7.20
2023-01-08T01:13:39.804Z,8.10
2023-01-08T01:14:39.799Z,7.30
2023-01-08T01:15:39.736Z,7.80
2023-01-08T01:16:40.031Z,7.60
2023-01-08T01:17:39.755Z,7.80
2023-01-08T01:18:39.742Z,7.80
2023-01-08T01:19:39.745Z,8.70
2023-01-08T01:20:39.825Z,8.40
2023-01-08T01:21:39.714Z,7.80
2023-01-08T01:22:39.834Z,7.90
2023-01-08T01:23:39.623Z,8.00
2023-01-08T01:24:39.672Z,8.00
2023-01-08T01:25:39.625Z,7.50
2023-01-08T01:26:39.624Z,7.70
2023-01-08T01:27:39.611Z,7.10
2023-01-08T01:28:39.634Z,7.70
2023-01-08T01:29:39.536Z,7.90
2023-01-08T01:30:39.686Z,7.40
2023-01-08T01:31:39.555Z,7.80
2023-01-08T01:32:39.550Z,7.90
2023-01-08T01:33:39.549Z,7.50
2023-01-08T01:34:39.563Z,7.40
2023-01-08T01:35:40.242Z,7.30
2023-01-08T01:36:39.504Z,7.60
2023-01-08T01:37:39.448Z,7.60
2023-01-08T01:38:39.457Z,7.70
2023-01-08T01:39:39.451Z,7.30
2023-01-08T01:40:39.550Z,6.80
2023-01-08T01:41:39.427Z,7.10
2023-01-08T01:42:39.428Z,7.30
2023-01-08T01:43:39.365Z,7.60
2023-01-08T01:44:39.409Z,7.30
2023-01-08T01:45:39.380Z,7.20
2023-01-08T01:46:39.442Z,7.40
2023-01-08T01:47:39.350Z,7.80
2023-01-08T01:48:39.339Z,7.70
2023-01-08T01:49:39.267Z,7.70
2023-01-08T01:50:39.280Z,7.10
2023-01-08T01:51:39.281Z,7.60
2023-01-08T01:52:39.292Z,7.40
2023-01-08T01:53:39.265Z,7.30
2023-01-08T01:54:39.251Z,7.30
2023-01-08T01:55:39.185Z,7.40
2023-01-08T01:56:39.249Z,7.90
2023-01-08T01:57:39.185Z,7.50
2023-01-08T01:58:39.313Z,7.70
2023-01-08T01:59:39.173Z,7.50
2023-01-08T02:00:39.184Z,7.60
2023-01-08T02:01:39.208Z,7.50
2023-01-08T02:02:39.112Z,7.50
2023-01-08T02:03:39.188Z,7.70
2023-01-08T02:04:39.214Z,7.80
2023-01-08T02:05:39.071Z,8.80
2023-01-08T02:06:39.106Z,7.60
2023-01-08T02:07:39.029Z,8.40
2023-01-08T02:08:39.098Z,7.60
2023-01-08T02:09:39.007Z,8.20
2023-01-08T02:10:39.132Z,8.10
2023-01-08T02:11:39.006Z,7.60
2023-01-08T02:12:39.010Z,8.70
2023-01-08T02:13:38.979Z,7.50
2023-01-08T02:14:38.994Z,7.90
2023-01-08T02:15:38.923Z,7.90
2023-01-08T02:16:38.972Z,7.60
2023-01-08T02:17:38.931Z,7.60
2023-01-08T02:18:38.885Z,7.50
2023-01-08T02:19:38.940Z,8.00
2023-01-08T02:20:38.854Z,7.90
2023-01-08T02:21:38.894Z,7.50
2023-01-08T02:22:38.990Z,7.70
2023-01-08T02:23:38.844Z,8.20
2023-01-08T02:24:38.858Z,7.90
2023-01-08T02:25:38.825Z,7.30
2023-01-08T02:26:38.793Z,7.60
2023-01-08T02:27:38.810Z,7.30
2023-01-08T02:28:38.835Z,7.10
2023-01-08T02:29:38.788Z,7.20
2023-01-08T02:30:38.776Z,7.40
2023-01-08T02:31:38.727Z,7.60
2023-01-08T02:32:38.699Z,7.40
2023-01-08T02:33:38.733Z,7.60
2023-01-08T02:34:38.728Z,7.40
2023-01-08T02:35:38.689Z,7.10
2023-01-08T02:36:38.682Z,7.30
2023-01-08T02:37:38.655Z,7.40
2023-01-08T02:38:38.617Z,7.70
2023-01-08T02:39:38.635Z,7.90
2023-01-08T02:40:38.687Z,7.60
2023-01-08T02:41:38.616Z,7.70
2023-01-08T02:42:38.565Z,7.10
2023-01-08T02:43:38.561Z,7.50
2023-01-08T02:44:38.550Z,7.40
2023-01-08T02:45:38.601Z,7.10
2023-01-08T02:46:38.568Z,7.10
2023-01-08T02:47:38.533Z,7.50
2023-01-08T02:48:38.488Z,7.40
2023-01-08T02:49:38.481Z,7.70
2023-01-08T02:50:38.469Z,7.60
2023-01-08T02:51:38.490Z,7.40
2023-01-08T02:52:38.441Z,7.60
2023-01-08T02:53:40.595Z,8.00
2023-01-08T02:54:38.401Z,7.40
2023-01-08T02:55:38.395Z,8.10
2023-01-08T02:56:38.402Z,7.80
2023-01-08T02:57:38.377Z,7.20
2023-01-08T02:58:38.404Z,7.30
2023-01-08T02:59:38.361Z,7.90
2023-01-08T03:00:38.305Z,8.00
2023-01-08T03:01:38.504Z,7.30
2023-01-08T03:02:38.347Z,7.20
2023-01-08T03:03:38.277Z,7.90
2023-01-08T03:04:38.422Z,7.30
2023-01-08T03:05:38.294Z,7.10
2023-01-08T03:06:38.243Z,7.50
2023-01-08T03:07:38.224Z,7.30
2023-01-08T03:08:38.231Z,7.40
2023-01-08T03:09:38.207Z,7.20
2023-01-08T03:10:38.188Z,7.20
2023-01-08T03:11:38.207Z,7.40
2023-01-08T03:12:38.127Z,7.10
2023-01-08T03:13:38.167Z,7.70
2023-01-08T03:14:38.136Z,7.50
2023-01-08T03:15:38.123Z,7.50
2023-01-08T03:16:38.196Z,7.50
2023-01-08T03:17:38.120Z,7.60
2023-01-08T03:18:38.050Z,7.40
2023-01-08T03:19:38.111Z,7.30
2023-01-08T03:20:38.032Z,7.20
2023-01-08T03:21:38.068Z,7.40
2023-01-08T03:22:38.178Z,7.40
2023-01-08T03:23:38.015Z,7.90
2023-01-08T03:24:38.001Z,7.30
2023-01-08T03:25:37.992Z,7.50
2023-01-08T03:26:37.938Z,7.30
2023-01-08T03:27:37.991Z,7.40
2023-01-08T03:28:37.975Z,7.40
2023-01-08T03:29:37.965Z,7.10
2023-01-08T03:30:37.945Z,7.00
2023-01-08T03:31:37.914Z,7.10
2023-01-08T03:32:37.902Z,7.20
2023-01-08T03:33:37.895Z,7.50
2023-01-08T03:34:37.894Z,7.30
2023-01-08T03:35:37.873Z,6.80
2023-01-08T03:36:37.873Z,7.20
2023-01-08T03:37:37.832Z,6.80
2023-01-08T03:38:37.787Z,6.80
2023-01-08T03:39:37.842Z,7.10
2023-01-08T03:40:37.787Z,6.60
2023-01-08T03:41:37.787Z,7.10
2023-01-08T03:42:37.755Z,7.00
2023-01-08T03:43:38.459Z,6.90
2023-01-08T03:44:37.738Z,7.10
2023-01-08T03:45:37.740Z,7.20
2023-01-08T03:46:37.804Z,7.10
2023-01-08T03:47:37.713Z,7.40
2023-01-08T03:48:37.657Z,7.00
2023-01-08T03:49:37.689Z,7.40
2023-01-08T03:50:37.661Z,7.00
2023-01-08T03:51:37.629Z,6.80
2023-01-08T03:52:37.625Z,6.80
2023-01-08T03:53:37.639Z,7.10
2023-01-08T03:54:37.607Z,7.40
2023-01-08T03:55:37.587Z,7.20
2023-01-08T03:56:37.561Z,7.30
2023-01-08T03:57:37.567Z,7.10
2023-01-08T03:58:37.547Z,7.00
2023-01-08T03:59:37.552Z,7.10
2023-01-08T04:00:37.506Z,6.70
2023-01-08T04:01:37.676Z,6.80
2023-01-08T04:02:37.522Z,6.80
2023-01-08T04:03:37.482Z,6.80
2023-01-08T04:04:37.600Z,7.20
2023-01-08T04:05:37.434Z,6.80
2023-01-08T04:06:37.418Z,6.80
2023-01-08T04:07:37.464Z,6.90
2023-01-08T04:08:37.406Z,7.00
2023-01-08T04:09:37.417Z,7.50
2023-01-08T04:10:37.398Z,7.50
2023-01-08T04:11:37.394Z,7.00
2023-01-08T04:12:37.351Z,7.80
2023-01-08T04:13:37.388Z,7.60
2023-01-08T04:14:37.316Z,7.20
2023-01-08T04:15:37.334Z,7.60
2023-01-08T04:16:37.342Z,7.30
2023-01-08T04:17:37.290Z,7.30
2023-01-08T04:18:37.250Z,7.10
2023-01-08T04:19:37.288Z,7.90
2023-01-08T04:20:37.217Z,7.20
2023-01-08T04:21:37.262Z,7.50
2023-01-08T04:22:37.262Z,7.50
2023-01-08T04:23:37.198Z,7.40
2023-01-08T04:24:37.187Z,7.80
2023-01-08T04:25:37.173Z,8.00
2023-01-08T04:26:37.135Z,7.40
2023-01-08T04:27:37.171Z,7.00
2023-01-08T04:28:37.223Z,7.70
2023-01-08T04:29:37.131Z,7.30
2023-01-08T04:30:37.132Z,7.50
2023-01-08T04:31:37.096Z,7.80
2023-01-08T04:32:37.072Z,8.20
2023-01-08T04:33:37.090Z,7.50
2023-01-08T04:34:37.180Z,7.70
2023-01-08T04:35:37.071Z,7.20
2023-01-08T04:36:36.987Z,8.00
2023-01-08T04:37:37.032Z,7.60
2023-01-08T04:38:37.014Z,7.60
2023-01-08T04:39:36.984Z,7.80
2023-01-08T04:40:37.015Z,7.20
2023-01-08T04:41:36.977Z,7.50
2023-01-08T04:42:36.925Z,7.40
2023-01-08T04:43:36.914Z,7.70
2023-01-08T04:44:36.907Z,7.30
2023-01-08T04:45:36.926Z,7.10
2023-01-08T04:46:36.963Z,7.00
2023-01-08T04:47:36.900Z,7.30
2023-01-08T04:48:36.827Z,7.40
2023-01-08T04:49:36.856Z,7.10
2023-01-08T04:50:36.836Z,7.10
2023-01-08T04:51:36.819Z,7.20
2023-01-08T04:52:36.842Z,7.00
2023-01-08T04:53:36.792Z,7.40
2023-01-08T04:54:36.732Z,7.70
2023-01-08T04:55:37.941Z,8.10
2023-01-08T04:56:36.747Z,7.50
2023-01-08T04:57:36.733Z,7.50
2023-01-08T04:58:36.730Z,7.90
2023-01-08T04:59:36.739Z,8.00
2023-01-08T05:00:36.681Z,7.10
2023-01-08T05:01:36.855Z,6.80
2023-01-08T05:02:36.961Z,8.00
2023-01-08T05:03:36.665Z,7.60
2023-01-08T05:04:36.673Z,7.60
2023-01-08T05:05:36.642Z,7.40
2023-01-08T05:06:36.574Z,7.10
2023-01-08T05:07:36.631Z,7.40
2023-01-08T05:08:36.599Z,7.30
2023-01-08T05:09:36.600Z,7.30
2023-01-08T05:10:36.604Z,7.30
2023-01-08T05:11:36.546Z,7.60
2023-01-08T05:12:36.496Z,7.50
2023-01-08T05:13:36.568Z,7.80
2023-01-08T05:14:36.494Z,7.50
2023-01-08T05:15:36.569Z,7.20
2023-01-08T05:16:36.521Z,7.50
2023-01-08T05:17:36.448Z,7.50
2023-01-08T05:18:37.168Z,7.50
2023-01-08T05:19:38.252Z,7.10
2023-01-08T05:20:36.398Z,7.20
2023-01-08T05:21:36.426Z,7.70
2023-01-08T05:22:36.434Z,7.40
2023-01-08T05:23:36.378Z,7.40
2023-01-08T05:24:36.351Z,7.20
2023-01-08T05:25:36.346Z,6.90
2023-01-08T05:26:36.318Z,6.90
2023-01-08T05:27:36.356Z,7.30
2023-01-08T05:28:36.415Z,7.50
2023-01-08T05:29:36.339Z,7.40
2023-01-08T05:30:36.302Z,7.20
2023-01-08T05:31:36.275Z,6.90
2023-01-08T05:32:36.268Z,7.10
2023-01-08T05:33:36.251Z,7.20
2023-01-08T05:34:36.245Z,7.90
2023-01-08T05:35:36.273Z,8.50
2023-01-08T05:36:36.165Z,7.20
2023-01-08T05:37:36.211Z,7.40
2023-01-08T05:38:36.188Z,7.10
2023-01-08T05:39:36.173Z,7.10
2023-01-08T05:40:36.259Z,7.10
2023-01-08T05:41:36.119Z,7.10
2023-01-08T05:42:36.095Z,7.70
2023-01-08T05:43:36.133Z,7.60
2023-01-08T05:44:36.089Z,7.80
2023-01-08T05:45:36.075Z,7.00
2023-01-08T05:46:36.150Z,7.30
2023-01-08T05:47:36.065Z,7.00
2023-01-08T05:48:36.052Z,7.10
2023-01-08T05:49:36.045Z,7.30
2023-01-08T05:50:36.043Z,6.90
2023-01-08T05:51:35.992Z,7.00
2023-01-08T05:52:36.029Z,7.10
2023-01-08T05:53:35.981Z,7.40
2023-01-08T05:54:35.929Z,7.20
2023-01-08T05:55:35.971Z,7.30
2023-01-08T05:56:35.903Z,7.40
2023-01-08T05:57:35.922Z,7.30
2023-01-08T05:58:35.915Z,7.50
2023-01-08T05:59:35.878Z,7.20
2023-01-08T06:00:35.831Z,7.20
2023-01-08T06:01:36.070Z,7.20
2023-01-08T06:02:35.939Z,7.10
2023-01-08T06:03:35.817Z,7.20
2023-01-08T06:04:35.984Z,7.20
2023-01-08T06:05:35.815Z,7.20
2023-01-08T06:06:35.765Z,7.20
2023-01-08T06:07:35.781Z,7.10
2023-01-08T06:08:35.755Z,7.30
2023-01-08T06:09:35.761Z,7.40
2023-01-08T06:10:36.014Z,7.20
2023-01-08T06:11:35.710Z,7.00
2023-01-08T06:12:35.703Z,7.20
2023-01-08T06:13:35.717Z,7.60
2023-01-08T06:14:35.638Z,7.20
2023-01-08T06:15:35.703Z,7.50
2023-01-08T06:16:35.676Z,7.20
2023-01-08T06:17:35.646Z,7.20
2023-01-08T06:18:35.593Z,6.90
2023-01-08T06:19:35.637Z,7.60
2023-01-08T06:20:35.545Z,7.30
2023-01-08T06:21:35.623Z,7.80
2023-01-08T06:22:35.650Z,7.20
2023-01-08T06:23:35.552Z,7.30
2023-01-08T06:24:35.556Z,7.30
2023-01-08T06:25:35.554Z,7.40
2023-01-08T06:28:21.709Z,38.00
2023-01-08T06:28:46.486Z,37.40
2023-01-08T06:29:46.523Z,55.40
2023-01-08T06:30:46.481Z,42.90
2023-01-08T06:31:46.510Z,5.80
2023-01-08T06:32:46.473Z,6.30
2023-01-08T06:33:46.427Z,6.30
2023-01-08T06:34:46.403Z,6.70
2023-01-08T06:35:46.446Z,6.30
2023-01-08T06:36:46.429Z,6.60
2023-01-08T06:37:46.381Z,6.60
2023-01-08T06:38:46.403Z,6.50
2023-01-08T06:39:46.455Z,6.60
2023-01-08T06:40:46.359Z,6.50
2023-01-08T06:41:46.332Z,6.70
2023-01-08T06:42:46.344Z,6.40
2023-01-08T06:43:46.275Z,6.30
2023-01-08T06:44:46.376Z,6.80
2023-01-08T06:45:46.369Z,6.10
2023-01-08T06:46:46.286Z,6.70
2023-01-08T06:47:46.235Z,6.80
2023-01-08T06:48:46.233Z,6.80
2023-01-08T06:49:46.221Z,6.60
2023-01-08T06:50:46.209Z,6.60
2023-01-08T06:51:46.283Z,6.70
2023-01-08T06:52:46.188Z,6.50
2023-01-08T06:53:46.135Z,6.70
2023-01-08T06:54:46.129Z,6.50
2023-01-08T06:55:46.133Z,6.80
2023-01-08T06:56:53.719Z,7.10
2023-01-08T06:57:47.164Z,6.50
2023-01-08T06:58:46.111Z,6.60
2023-01-08T06:59:46.106Z,6.40
2023-01-08T07:00:46.037Z,6.50
2023-01-08T07:01:46.194Z,6.40
2023-01-08T07:02:46.164Z,6.50
2023-01-08T07:03:46.242Z,6.00
2023-01-08T07:04:46.020Z,6.40
2023-01-08T07:05:45.990Z,6.40
2023-01-08T07:06:45.950Z,6.60
2023-01-08T07:07:45.982Z,6.60
2023-01-08T07:08:45.915Z,6.60
2023-01-08T07:09:46.002Z,6.40
2023-01-08T07:10:45.940Z,6.30
2023-01-08T07:11:45.901Z,6.70
2023-01-08T07:12:45.898Z,6.30
2023-01-08T07:13:45.915Z,6.10
2023-01-08T07:14:45.894Z,6.10
2023-01-08T07:15:45.959Z,6.40
2023-01-08T07:16:45.848Z,6.40
2023-01-08T07:17:45.852Z,6.20
2023-01-08T07:18:45.787Z,6.40
2023-01-08T07:19:45.822Z,6.50
2023-01-08T07:20:45.759Z,6.60
2023-01-08T07:21:45.925Z,6.30
2023-01-08T07:22:45.777Z,6.40
2023-01-08T07:23:45.759Z,6.50
2023-01-08T07:24:45.721Z,6.50
2023-01-08T07:25:45.731Z,6.30
2023-01-08T07:26:45.683Z,6.40
2023-01-08T07:27:45.839Z,5.90
2023-01-08T07:28:45.698Z,6.20
2023-01-08T07:29:45.682Z,6.00
2023-01-08T07:30:45.652Z,6.00
2023-01-08T07:31:45.724Z,6.80
2023-01-08T07:32:45.604Z,6.20
2023-01-08T07:33:45.782Z,5.70
2023-01-08T07:34:45.612Z,5.40
2023-01-08T07:35:45.608Z,5.80
2023-01-08T07:36:45.571Z,5.80
2023-01-08T07:37:45.566Z,6.00
2023-01-08T07:38:45.545Z,6.20
2023-01-08T07:39:45.575Z,5.90
2023-01-08T07:40:45.501Z,5.80
2023-01-08T07:41:45.548Z,5.80
2023-01-08T07:42:45.494Z,5.80
2023-01-08T07:43:45.487Z,5.80
2023-01-08T07:44:45.448Z,6.10
2023-01-08T07:45:45.513Z,5.90
2023-01-08T07:46:45.467Z,6.60
2023-01-08T07:47:45.424Z,6.20
2023-01-08T07:48:45.458Z,6.10
2023-01-08T07:49:45.392Z,6.10
2023-01-08T07:50:45.354Z,6.00
2023-01-08T07:51:45.425Z,6.30
2023-01-08T07:52:45.360Z,6.20
2023-01-08T07:53:45.366Z,6.20
2023-01-08T07:54:46.067Z,6.30
2023-01-08T07:55:45.309Z,6.10
2023-01-08T07:56:45.309Z,6.00
2023-01-08T07:57:45.337Z,6.10
2023-01-08T07:58:45.252Z,5.90
2023-01-08T07:59:45.290Z,6.30
2023-01-08T08:00:45.233Z,5.90
2023-01-08T08:01:45.378Z,6.00
2023-01-08T08:02:45.391Z,6.00
2023-01-08T08:03:45.281Z,5.70
2023-01-08T08:04:45.590Z,5.80
2023-01-08T08:05:45.184Z,5.90
2023-01-08T08:06:45.163Z,5.90
2023-01-08T08:07:45.187Z,6.10
2023-01-08T08:08:45.126Z,6.30
2023-01-08T08:09:45.322Z,5.80
2023-01-08T08:10:45.141Z,5.80
2023-01-08T08:11:45.108Z,5.90
2023-01-08T08:12:45.092Z,6.20
2023-01-08T08:13:45.125Z,6.40
2023-01-08T08:14:45.070Z,5.90
2023-01-08T08:15:45.159Z,6.70
2023-01-08T08:16:45.033Z,6.30
2023-01-08T08:17:45.026Z,6.50
2023-01-08T08:18:44.994Z,6.00
2023-01-08T08:19:45.040Z,6.10
2023-01-08T08:20:44.957Z,6.40
2023-01-08T08:21:45.023Z,6.30
2023-01-08T08:22:44.969Z,6.30
2023-01-08T08:23:44.960Z,6.70
2023-01-08T08:24:44.937Z,6.30
2023-01-08T08:25:44.920Z,6.80
2023-01-08T08:26:44.910Z,6.40
2023-01-08T08:27:45.044Z,6.10
2023-01-08T08:28:44.848Z,6.50
2023-01-08T08:29:44.909Z,6.80
2023-01-08T08:30:44.853Z,6.30
2023-01-08T08:31:44.832Z,6.70
2023-01-08T08:32:44.834Z,6.80
2023-01-08T08:33:44.857Z,6.90
2023-01-08T08:34:44.788Z,6.70
2023-01-08T08:35:44.783Z,6.00
2023-01-08T08:36:44.770Z,6.60
2023-01-08T08:37:44.747Z,7.00
2023-01-08T08:38:44.736Z,6.80
2023-01-08T08:39:44.779Z,6.60
2023-01-08T08:40:44.681Z,6.40
2023-01-08T08:41:44.757Z,6.30
2023-01-08T08:42:44.722Z,6.00
2023-01-08T08:43:44.674Z,6.80
2023-01-08T08:44:44.665Z,6.90
2023-01-08T08:45:44.687Z,6.10
2023-01-08T08:46:44.637Z,6.10
2023-01-08T08:47:44.654Z,6.80
2023-01-08T08:48:44.612Z,6.80
2023-01-08T08:49:44.600Z,5.90
2023-01-08T08:50:44.546Z,4.30
2023-01-08T08:51:44.713Z,4.50
2023-01-08T08:52:44.528Z,4.20
2023-01-08T08:53:44.564Z,4.40
2023-01-08T08:54:44.541Z,5.40
2023-01-08T08:55:44.515Z,5.30
2023-01-08T08:56:44.493Z,4.50
2023-01-08T08:57:44.495Z,4.90
2023-01-08T08:58:44.481Z,5.40
2023-01-08T08:59:44.480Z,5.10
2023-01-08T09:00:44.475Z,6.10
2023-01-08T09:01:44.614Z,6.20
2023-01-08T09:02:44.487Z,6.90
2023-01-08T09:03:44.426Z,6.70
2023-01-08T09:04:44.416Z,7.60
2023-01-08T09:05:44.392Z,7.10
2023-01-08T09:06:44.368Z,6.70
2023-01-08T09:07:44.388Z,6.90
2023-01-08T09:08:44.315Z,7.30
2023-01-08T09:09:44.401Z,7.20
2023-01-08T09:10:44.327Z,7.30
2023-01-08T09:11:44.302Z,6.70
2023-01-08T09:12:44.285Z,5.80
2023-01-08T09:13:44.271Z,6.90
2023-01-08T09:14:44.234Z,5.40
2023-01-08T09:15:44.381Z,5.90
2023-01-08T09:16:44.205Z,5.90
2023-01-08T09:17:44.250Z,5.70
2023-01-08T09:18:44.201Z,5.90
2023-01-08T09:19:44.175Z,6.90
2023-01-08T09:20:44.172Z,6.00
2023-01-08T09:21:44.213Z,5.40
2023-01-08T09:22:44.171Z,5.20
2023-01-08T09:23:44.140Z,6.70
2023-01-08T09:24:44.288Z,5.50
2023-01-08T09:25:44.107Z,6.20
2023-01-08T09:26:44.079Z,6.00
2023-01-08T09:27:44.151Z,6.10
2023-01-08T09:28:44.047Z,6.00
2023-01-08T09:29:44.083Z,5.90
2023-01-08T09:30:44.053Z,5.50
2023-01-08T09:31:44.127Z,5.40
2023-01-08T09:32:44.014Z,5.80
2023-01-08T09:33:44.033Z,5.50
2023-01-08T09:34:43.958Z,6.00
2023-01-08T09:35:44.364Z,6.10
2023-01-08T09:36:43.955Z,5.10
2023-01-08T09:37:43.967Z,5.50
2023-01-08T09:38:43.941Z,5.50
2023-01-08T09:39:48.050Z,6.10
2023-01-08T09:40:43.909Z,5.60
2023-01-08T09:41:43.928Z,5.60
2023-01-08T09:42:43.890Z,5.40
2023-01-08T09:43:43.904Z,6.20
2023-01-08T09:44:43.855Z,6.10
2023-01-08T09:45:43.891Z,6.30
2023-01-08T09:46:43.836Z,6.30
2023-01-08T09:47:43.838Z,6.20
2023-01-08T09:48:43.771Z,6.30
2023-01-08T09:49:43.825Z,6.70
2023-01-08T09:50:43.775Z,5.90
2023-01-08T09:51:43.812Z,6.10
2023-01-08T09:52:44.002Z,6.00
2023-01-08T09:53:43.776Z,5.50
2023-01-08T09:54:43.720Z,6.10
2023-01-08T09:55:43.727Z,6.20
2023-01-08T09:56:43.719Z,5.60
2023-01-08T09:57:43.732Z,5.30
2023-01-08T09:58:43.665Z,5.30
2023-01-08T09:59:43.688Z,5.30
2023-01-08T10:00:43.786Z,5.20
2023-01-08T10:01:43.722Z,5.10
2023-01-08T10:02:43.664Z,5.00
2023-01-08T10:03:43.717Z,5.20
2023-01-08T10:04:43.583Z,5.40
2023-01-08T10:05:43.567Z,5.70
2023-01-08T10:06:43.544Z,5.60
2023-01-08T10:07:43.566Z,5.20
2023-01-08T10:08:43.501Z,5.50
2023-01-08T10:09:43.657Z,5.70
2023-01-08T10:10:43.495Z,5.40
2023-01-08T10:11:43.500Z,5.60
2023-01-08T10:12:43.472Z,5.30
2023-01-08T10:13:43.461Z,5.60
2023-01-08T10:14:43.419Z,5.70
2023-01-08T10:15:43.478Z,5.00
2023-01-08T10:16:43.376Z,5.40
2023-01-08T10:17:43.434Z,5.20
2023-01-08T10:18:43.395Z,5.00
2023-01-08T10:19:43.370Z,5.30
2023-01-08T10:20:43.377Z,4.90
2023-01-08T10:21:43.389Z,5.60
2023-01-08T10:22:43.291Z,5.10
2023-01-08T10:23:43.345Z,5.50
2023-01-08T10:24:43.317Z,5.60
2023-01-08T10:25:43.304Z,5.00
2023-01-08T10:26:43.266Z,5.50
2023-01-08T10:27:43.420Z,5.30
2023-01-08T10:28:43.213Z,5.10
2023-01-08T10:29:43.278Z,5.20
2023-01-08T10:30:43.232Z,4.90
2023-01-08T10:31:43.277Z,5.00
2023-01-08T10:32:43.185Z,5.00
2023-01-08T10:33:43.315Z,5.00
2023-01-08T10:34:43.173Z,5.40
2023-01-08T10:35:43.179Z,5.80
2023-01-08T10:36:43.131Z,5.60
2023-01-08T10:37:43.162Z,4.90
2023-01-08T10:38:43.132Z,5.30
2023-01-08T10:39:43.212Z,5.20
2023-01-08T10:40:43.068Z,4.80
2023-01-08T10:41:43.111Z,5.50
2023-01-08T10:42:43.077Z,5.80
2023-01-08T10:43:43.060Z,5.50
2023-01-08T10:44:43.026Z,5.10
2023-01-08T10:45:43.177Z,5.60
2023-01-08T10:46:42.985Z,5.40
2023-01-08T10:47:43.715Z,5.40
2023-01-08T10:48:42.939Z,5.40
2023-01-08T10:49:43.005Z,5.60
2023-01-08T10:50:42.963Z,5.20
2023-01-08T10:51:42.961Z,5.30
2023-01-08T10:52:42.969Z,5.40
2023-01-08T10:53:42.931Z,5.40
2023-01-08T10:54:42.868Z,4.90
2023-01-08T10:55:42.911Z,5.20
2023-01-08T10:56:42.879Z,5.70
2023-01-08T10:57:42.917Z,5.90
2023-01-08T10:58:42.849Z,5.60
2023-01-08T10:59:42.907Z,5.40
2023-01-08T11:00:42.814Z,5.80
2023-01-08T11:01:43.071Z,5.50
2023-01-08T11:02:42.813Z,6.30
2023-01-08T11:03:42.827Z,6.20
2023-01-08T11:04:42.754Z,5.90
2023-01-08T11:05:42.760Z,5.50
2023-01-08T11:06:42.695Z,5.70
2023-01-08T11:07:42.761Z,5.60
2023-01-08T11:08:42.680Z,5.60
2023-01-08T11:09:42.761Z,7.00
2023-01-08T11:10:42.677Z,11.80
2023-01-08T11:11:42.658Z,8.10
2023-01-08T11:12:42.692Z,6.70
2023-01-08T11:13:42.622Z,7.40
2023-01-08T11:14:42.624Z,7.00
2023-01-08T11:15:42.743Z,5.70
2023-01-08T11:16:42.655Z,5.80
2023-01-08T11:17:42.575Z,7.10
2023-01-08T11:18:42.593Z,8.60
2023-01-08T11:19:42.528Z,8.50
2023-01-08T11:20:42.581Z,6.20
2023-01-08T11:21:42.536Z,7.20
2023-01-08T11:22:42.530Z,7.60
2023-01-08T11:23:42.525Z,6.50
2023-01-08T11:24:42.509Z,6.40
2023-01-08T11:25:42.496Z,5.60
2023-01-08T11:26:42.495Z,5.70
2023-01-08T11:27:42.566Z,6.00
2023-01-08T11:28:42.446Z,5.90
2023-01-08T11:29:42.443Z,6.50
2023-01-08T11:30:42.429Z,5.90
2023-01-08T11:31:42.420Z,5.60
2023-01-08T11:32:42.416Z,7.20
2023-01-08T11:33:42.377Z,6.50
2023-01-08T11:34:42.360Z,6.60
2023-01-08T11:35:42.346Z,6.50
2023-01-08T11:36:42.342Z,5.90
2023-01-08T11:37:42.314Z,5.90
2023-01-08T11:38:42.333Z,6.10
2023-01-08T11:39:42.305Z,6.30
2023-01-08T11:40:42.313Z,5.90
2023-01-08T11:41:42.246Z,6.20
2023-01-08T11:42:42.253Z,5.80
2023-01-08T11:43:42.237Z,5.80
2023-01-08T11:44:42.253Z,5.70
2023-01-08T11:45:42.277Z,5.60
2023-01-08T11:46:42.213Z,5.60
2023-01-08T11:47:42.196Z,6.00
2023-01-08T11:48:42.188Z,5.40
2023-01-08T11:49:42.158Z,6.00
2023-01-08T11:50:42.186Z,6.20
2023-01-08T11:51:42.129Z,5.80
2023-01-08T11:52:42.145Z,5.70
2023-01-08T11:53:42.087Z,5.90
2023-01-08T11:54:42.090Z,5.80
2023-01-08T11:55:42.066Z,6.30
2023-01-08T11:56:42.070Z,5.90
2023-01-08T11:57:42.079Z,6.10
2023-01-08T11:58:42.047Z,6.00
2023-01-08T11:59:41.991Z,5.70
2023-01-08T12:00:42.019Z,6.10
2023-01-08T12:01:42.173Z,6.30
2023-01-08T12:02:42.012Z,6.20
2023-01-08T12:03:41.961Z,5.70
2023-01-08T12:04:41.989Z,6.50
2023-01-08T12:05:41.914Z,6.40
2023-01-08T12:06:41.951Z,6.20
2023-01-08T12:07:41.938Z,6.20
2023-01-08T12:08:41.907Z,6.20
2023-01-08T12:09:42.000Z,6.80
2023-01-08T12:10:41.905Z,6.10
2023-01-08T12:11:41.843Z,6.20
2023-01-08T12:12:41.892Z,6.20
2023-01-08T12:13:41.816Z,6.60
2023-01-08T12:14:41.829Z,6.40
2023-01-08T12:15:41.836Z,6.20
2023-01-08T12:16:41.883Z,6.70
2023-01-08T12:17:41.782Z,6.50
2023-01-08T12:18:41.792Z,6.30
2023-01-08T12:19:41.773Z,5.90
2023-01-08T12:20:41.773Z,6.10
2023-01-08T12:21:41.814Z,5.80
2023-01-08T12:22:41.727Z,6.40
2023-01-08T12:23:41.694Z,5.80
2023-01-08T12:24:41.689Z,5.90
2023-01-08T12:25:41.675Z,6.20
2023-01-08T12:26:41.677Z,6.20
2023-01-08T12:27:56.398Z,6.50
2023-01-08T12:28:42.665Z,6.50
2023-01-08T12:29:41.589Z,6.60
2023-01-08T12:30:41.612Z,6.10
2023-01-08T12:31:44.305Z,6.70
2023-01-08T12:32:41.634Z,6.60
2023-01-08T12:33:41.656Z,6.80
2023-01-08T12:34:41.521Z,6.80
2023-01-08T12:35:41.551Z,7.20
2023-01-08T12:36:41.537Z,6.60
2023-01-08T12:37:41.500Z,7.00
2023-01-08T12:38:41.529Z,7.20
2023-01-08T12:39:41.553Z,6.80
2023-01-08T12:40:41.519Z,7.00
2023-01-08T12:41:41.445Z,6.40
2023-01-08T12:42:46.764Z,6.70
2023-01-08T12:43:42.416Z,7.80
2023-01-08T12:44:41.426Z,6.80
2023-01-08T12:45:41.546Z,6.60
2023-01-08T12:46:41.420Z,6.70
2023-01-08T12:47:41.339Z,6.30
2023-01-08T12:48:41.369Z,7.20
2023-01-08T12:49:41.363Z,7.40
2023-01-08T12:50:41.384Z,7.50
2023-01-08T12:51:41.419Z,6.50
2023-01-08T12:52:41.336Z,6.50
2023-01-08T12:53:41.246Z,7.50
2023-01-08T12:54:41.304Z,7.30
2023-01-08T12:55:41.270Z,6.60
2023-01-08T12:56:41.261Z,6.70
2023-01-08T12:57:41.265Z,6.20
2023-01-08T12:58:41.252Z,6.50
2023-01-08T12:59:41.188Z,6.90
2023-01-08T13:00:41.215Z,7.10
2023-01-08T13:01:42.517Z,6.50
2023-01-08T13:02:41.238Z,6.70
2023-01-08T13:03:41.297Z,6.90
2023-01-08T13:04:41.157Z,7.40
2023-01-08T13:05:41.094Z,7.00
2023-01-08T13:06:41.811Z,7.10
2023-01-08T13:07:41.123Z,6.80
2023-01-08T13:08:41.081Z,6.80
2023-01-08T13:09:41.125Z,6.80
2023-01-08T13:10:41.098Z,6.50
2023-01-08T13:11:41.032Z,7.20
2023-01-08T13:12:41.073Z,6.30
2023-01-08T13:13:41.012Z,7.10
2023-01-08T13:14:41.005Z,6.50
2023-01-08T13:15:41.039Z,6.70
2023-01-08T13:16:41.088Z,6.50
2023-01-08T13:17:40.973Z,6.20
2023-01-08T13:18:40.996Z,6.60
2023-01-08T13:19:41.732Z,6.50